NGTA/TRW METAR and TAF weather

Enter ICAO airport designator
Station Type Date Time Source
NGTA METAR 2021/02/24 17:00 UTC NOAA

NGTA 241700Z 07006KT 9999 SCT019 27/24 Q1005


Station Type Date Time Source
NGTA Decoded METAR 2021/02/24 17:00 UTC NOAA

Tarawa, Kiribati (NGTA) 01-21N 172-55E 4M
Feb 24, 2021 - 12:00 PM EST / 2021.02.24 1700 UTC
Wind: from the ENE (070 degrees) at 7 MPH (6 KT):0
Visibility: greater than 7 mile(s):0
Sky conditions: partly cloudy
Temperature: 80 F (27 C)
Dew Point: 75 F (24 C)
Relative Humidity: 83%
Pressure (altimeter): 29.68 in. Hg (1005 hPa)
ob: NGTA 241700Z 07006KT 9999 SCT019 27/24 Q1005
cycle: 17

Station Type Date Time Source
NGTA TAF 2021/02/24 18:23 UTC NOAA

TAF NGTA 241718Z 2418/2518 07008KT 9999 SCT018 PROB30
TEMPO 2418/2420 5000 SHRA BKN015

Example: see airport list